KOEB

Branch County Memorial Airport

Coldwater, Michigan, USA
METAR KOEB 240715Z AUTO 00000KT 1SM BR VV007 13/13 A3021 RMK AO2 VIS 1/2V5 T01260126
Observed Flight Rules
May-24 @ 07:15 UTC (24 minutes ago) Instrument Flight Rules
Visibility Clouds Conditions
1 miles
  • Vertical visibility at 700' AGL
  • Mist
Temperatures Readings
Current 13°C / 55°F
Dewpoint 13°C / 55°F
Humidity 100%
Altimeter 30.21" Hg
Pressure 1023 hPa
Elevation 292
METAR KOEB 240715Z AUTO 00000KT 1SM BR VV007 13/13 A3021 RMK AO2 VIS 1/2V5 T01260126
Observed Flight Rules
May-24 @ 07:15 UTC
(24 minutes ago)
LIFR
Clouds
  • Vertical visibility at 700' AGL
Conditions
  • Mist
Temperature Dewpoint
13°C / 55°F 13°C / 55°F
Humidity Altimeter Pressure
100% 30.21" Hg 1023 hPa